createdAt,value
2017-09-13T00:01:11.437Z,10.73
2017-09-13T00:03:37.653Z,13.35
2017-09-13T00:06:03.887Z,13.98
2017-09-13T00:08:30.117Z,10.20
2017-09-13T00:10:56.347Z,8.25
2017-09-13T00:13:22.587Z,15.98
2017-09-13T00:15:48.818Z,13.70
2017-09-13T00:18:15.023Z,13.52
2017-09-13T00:20:41.262Z,14.77
2017-09-13T00:23:07.490Z,6.87
2017-09-13T00:25:33.706Z,11.27
2017-09-13T00:27:59.941Z,6.75
2017-09-13T00:30:26.185Z,27.37
2017-09-13T00:32:52.408Z,7.72
2017-09-13T00:35:18.686Z,10.73
2017-09-13T00:37:44.876Z,9.73
2017-09-13T00:40:11.120Z,5.40
2017-09-13T00:42:37.352Z,7.60
2017-09-13T00:45:03.540Z,4.20
2017-09-13T00:47:29.772Z,2.83
2017-09-13T00:49:56.025Z,2.30
2017-09-13T00:52:22.250Z,2.67
2017-09-13T00:54:48.461Z,3.95
2017-09-13T00:57:14.708Z,1.98
2017-09-13T00:59:40.924Z,2.72
2017-09-13T01:02:07.151Z,1.60
2017-09-13T01:04:33.383Z,1.85
2017-09-13T01:06:59.630Z,1.42
2017-09-13T01:09:25.850Z,2.03
2017-09-13T01:11:52.088Z,2.22
2017-09-13T01:14:18.318Z,3.33
2017-09-13T01:16:44.546Z,3.03
2017-09-13T01:19:10.773Z,2.72
2017-09-13T01:21:36.989Z,2.05
2017-09-13T01:24:03.236Z,2.90
2017-09-13T01:26:29.455Z,2.67
2017-09-13T01:28:55.692Z,2.30
2017-09-13T01:31:21.925Z,4.45
2017-09-13T01:33:48.158Z,3.45
2017-09-13T01:36:14.379Z,3.90
2017-09-13T01:38:40.613Z,4.40
2017-09-13T01:41:06.844Z,3.83
2017-09-13T01:43:33.066Z,2.67
2017-09-13T01:45:59.293Z,4.43
2017-09-13T01:48:25.533Z,3.30
2017-09-13T01:50:51.763Z,7.25
2017-09-13T01:53:17.979Z,5.47
2017-09-13T01:55:44.204Z,4.55
2017-09-13T01:58:10.434Z,4.07
2017-09-13T02:00:36.676Z,9.10
2017-09-13T02:03:02.901Z,6.32
2017-09-13T02:05:29.142Z,5.07
2017-09-13T02:07:55.383Z,13.02
2017-09-13T02:10:21.596Z,5.78
2017-09-13T02:12:47.836Z,5.40
2017-09-13T02:15:14.064Z,9.05
2017-09-13T02:17:40.287Z,5.20
2017-09-13T02:20:06.517Z,4.68
2017-09-13T02:22:32.737Z,9.73
2017-09-13T02:24:58.977Z,2.85
2017-09-13T02:27:25.210Z,3.28
2017-09-13T02:29:51.430Z,5.55
2017-09-13T02:32:17.666Z,3.58
2017-09-13T02:34:43.882Z,2.60
2017-09-13T02:37:10.116Z,3.10
2017-09-13T02:39:36.342Z,3.35
2017-09-13T02:42:02.590Z,3.03
2017-09-13T02:44:28.809Z,3.25
2017-09-13T02:46:55.051Z,3.83
2017-09-13T02:49:21.279Z,3.33
2017-09-13T02:51:47.508Z,14.07
2017-09-13T02:54:13.734Z,5.45
2017-09-13T02:56:39.962Z,3.75
2017-09-13T02:59:06.187Z,3.20
2017-09-13T03:01:32.416Z,3.90
2017-09-13T03:03:58.625Z,4.32
2017-09-13T03:06:24.881Z,3.25
2017-09-13T03:08:51.125Z,3.55
2017-09-13T03:11:17.344Z,4.30
2017-09-13T03:13:43.582Z,3.08
2017-09-13T03:16:09.790Z,3.58
2017-09-13T03:18:36.034Z,3.58
2017-09-13T03:21:02.253Z,2.50
2017-09-13T03:23:28.494Z,7.80
2017-09-13T03:25:54.714Z,4.45
2017-09-13T03:28:20.941Z,4.93
2017-09-13T03:30:47.182Z,3.85
2017-09-13T03:33:13.421Z,2.95
2017-09-13T03:35:39.644Z,4.03
2017-09-13T03:38:05.876Z,4.05
2017-09-13T03:40:32.088Z,3.30
2017-09-13T03:42:58.329Z,5.62
2017-09-13T03:45:24.560Z,4.32
2017-09-13T03:47:50.780Z,10.82
2017-09-13T03:50:17.015Z,7.53
2017-09-13T03:52:43.273Z,2.83
2017-09-13T03:55:09.478Z,2.67
2017-09-13T03:57:35.707Z,1.95
2017-09-13T04:00:01.928Z,1.85
2017-09-13T04:02:28.163Z,1.67
2017-09-13T04:04:54.389Z,1.60
2017-09-13T04:07:20.632Z,0.77
2017-09-13T04:09:46.843Z,1.17
2017-09-13T04:12:13.102Z,0.75
2017-09-13T04:14:39.313Z,0.88
2017-09-13T04:17:05.538Z,0.90
2017-09-13T04:19:31.773Z,1.92
2017-09-13T04:21:57.994Z,1.33
2017-09-13T04:24:24.223Z,1.25
2017-09-13T04:26:50.462Z,1.10
2017-09-13T04:29:16.681Z,4.62
2017-09-13T04:31:42.912Z,1.20
2017-09-13T04:34:09.154Z,1.10
2017-09-13T04:36:35.381Z,0.70
2017-09-13T04:39:01.614Z,2.20
2017-09-13T04:41:27.858Z,1.48
2017-09-13T04:43:54.068Z,1.33
2017-09-13T04:46:20.299Z,1.20
2017-09-13T04:48:46.545Z,1.73
2017-09-13T04:51:12.766Z,1.85
2017-09-13T04:53:38.974Z,1.10
2017-09-13T04:56:05.209Z,2.03
2017-09-13T04:58:31.434Z,1.62
2017-09-13T05:00:57.671Z,0.98
2017-09-13T05:03:23.890Z,1.27
2017-09-13T05:05:50.181Z,1.77
2017-09-13T05:08:16.364Z,1.85
2017-09-13T05:10:42.600Z,1.40
2017-09-13T05:13:08.823Z,1.25
2017-09-13T05:15:35.051Z,1.30
2017-09-13T05:18:01.280Z,1.55
2017-09-13T05:20:27.501Z,1.33
2017-09-13T05:22:53.727Z,1.30
2017-09-13T05:25:19.969Z,1.20
2017-09-13T05:27:46.250Z,1.95
2017-09-13T05:30:12.419Z,1.67
2017-09-13T05:32:38.646Z,1.00
2017-09-13T05:35:04.908Z,0.93
2017-09-13T05:37:31.128Z,0.80
2017-09-13T05:39:57.367Z,0.90
2017-09-13T05:42:23.585Z,1.00
2017-09-13T05:44:49.818Z,1.10
2017-09-13T05:47:16.031Z,4.00
2017-09-13T05:49:42.270Z,1.00
2017-09-13T05:52:08.515Z,1.10
2017-09-13T05:54:34.717Z,1.30
2017-09-13T05:57:00.965Z,1.13
2017-09-13T05:59:27.190Z,1.73
2017-09-13T06:01:53.428Z,1.00
2017-09-13T06:04:19.656Z,1.20
2017-09-13T06:06:45.888Z,1.10
2017-09-13T06:09:12.094Z,1.07
2017-09-13T06:11:38.320Z,1.23
2017-09-13T06:14:04.582Z,1.77
2017-09-13T06:16:30.802Z,1.03
2017-09-13T06:18:57.019Z,1.27
2017-09-13T06:21:23.237Z,5.13
2017-09-13T06:23:49.474Z,0.83
2017-09-13T06:26:15.721Z,1.10
2017-09-13T06:28:41.953Z,1.30
2017-09-13T06:31:08.170Z,0.97
2017-09-13T06:33:34.408Z,1.67
2017-09-13T06:36:00.643Z,1.17
2017-09-13T06:38:26.790Z,1.10
2017-09-13T06:40:52.994Z,2.60
2017-09-13T06:43:19.219Z,1.10
2017-09-13T06:45:45.461Z,1.07
2017-09-13T06:48:11.632Z,1.07
2017-09-13T06:50:37.792Z,1.10
2017-09-13T06:53:04.149Z,1.00
2017-09-13T06:55:30.375Z,1.00
2017-09-13T06:57:56.610Z,1.27
2017-09-13T07:00:22.824Z,0.93
2017-09-13T07:02:49.068Z,1.37
2017-09-13T07:05:15.278Z,0.80
2017-09-13T07:07:41.513Z,0.80
2017-09-13T07:10:07.757Z,0.87
2017-09-13T07:12:40.376Z,0.90
2017-09-13T07:15:06.545Z,0.83
2017-09-13T07:17:32.794Z,1.07
2017-09-13T07:19:58.936Z,1.10
2017-09-13T07:22:25.144Z,0.90
2017-09-13T07:24:51.288Z,0.97
2017-09-13T07:27:17.444Z,1.70
2017-09-13T07:29:43.595Z,1.10
2017-09-13T07:32:09.739Z,2.27
2017-09-13T07:34:35.920Z,1.23
2017-09-13T07:37:02.087Z,0.90
2017-09-13T07:39:28.245Z,1.20
2017-09-13T07:41:54.417Z,0.90
2017-09-13T07:44:20.584Z,1.30
2017-09-13T07:46:46.722Z,0.77
2017-09-13T07:49:12.888Z,0.93
2017-09-13T07:51:39.054Z,1.87
2017-09-13T07:54:05.218Z,1.37
2017-09-13T07:56:31.380Z,1.30
2017-09-13T07:58:57.539Z,0.80
2017-09-13T08:01:23.700Z,0.90
2017-09-13T08:03:51.120Z,3.40
2017-09-13T08:06:17.284Z,0.90
2017-09-13T08:08:43.446Z,0.80
2017-09-13T08:11:09.772Z,0.80
2017-09-13T08:13:35.925Z,1.00
2017-09-13T08:16:02.074Z,1.20
2017-09-13T08:18:28.220Z,0.70
2017-09-13T08:20:54.374Z,0.70
2017-09-13T08:23:20.580Z,0.90
2017-09-13T08:25:46.809Z,0.93
2017-09-13T08:28:13.048Z,1.00
2017-09-13T08:30:39.264Z,1.43
2017-09-13T08:33:05.425Z,1.67
2017-09-13T08:35:31.616Z,0.93
2017-09-13T08:37:57.860Z,1.13
2017-09-13T08:40:24.094Z,1.13
2017-09-13T08:42:50.316Z,1.63
2017-09-13T08:45:16.557Z,0.83
2017-09-13T08:47:42.768Z,0.80
2017-09-13T08:50:09.019Z,1.00
2017-09-13T08:52:35.236Z,1.20
2017-09-13T08:55:01.385Z,0.83
2017-09-13T08:57:27.598Z,0.80
2017-09-13T08:59:53.829Z,1.20
2017-09-13T09:02:20.057Z,1.10
2017-09-13T09:04:46.192Z,0.83
2017-09-13T09:07:12.413Z,0.80
2017-09-13T09:09:38.637Z,0.90
2017-09-13T09:12:04.813Z,0.70
2017-09-13T09:14:31.007Z,0.83
2017-09-13T09:16:57.229Z,0.83
2017-09-13T09:19:23.455Z,1.30
2017-09-13T09:21:49.693Z,0.80
2017-09-13T09:24:15.921Z,0.90
2017-09-13T09:26:42.137Z,1.03
2017-09-13T09:29:08.367Z,0.73
2017-09-13T09:31:34.598Z,0.90
2017-09-13T09:34:00.845Z,0.80
2017-09-13T09:36:27.051Z,0.80
2017-09-13T09:38:53.295Z,0.90
2017-09-13T09:41:19.517Z,0.90
2017-09-13T09:43:45.749Z,0.70
2017-09-13T09:46:11.986Z,1.00
2017-09-13T09:48:38.203Z,0.70
2017-09-13T09:51:04.456Z,0.67
2017-09-13T09:53:30.663Z,0.70
2017-09-13T09:55:56.911Z,0.70
2017-09-13T09:58:23.122Z,0.80
2017-09-13T10:00:49.353Z,0.70
2017-09-13T10:03:15.592Z,0.70
2017-09-13T10:05:41.821Z,0.90
2017-09-13T10:08:08.036Z,0.70
2017-09-13T10:10:34.271Z,0.73
2017-09-13T10:13:00.501Z,0.90
2017-09-13T10:15:26.742Z,0.80
2017-09-13T10:17:52.959Z,0.73
2017-09-13T10:20:19.193Z,0.60
2017-09-13T10:22:45.423Z,0.90
2017-09-13T10:25:11.647Z,0.80
2017-09-13T10:27:37.884Z,0.67
2017-09-13T10:30:04.105Z,1.00
2017-09-13T10:32:30.342Z,0.80
2017-09-13T10:34:56.573Z,0.63
2017-09-13T10:37:22.805Z,1.03
2017-09-13T10:39:49.022Z,1.10
2017-09-13T10:42:15.275Z,1.17
2017-09-13T10:44:41.496Z,1.33
2017-09-13T10:47:07.713Z,0.60
2017-09-13T10:49:33.956Z,1.10
2017-09-13T10:52:00.178Z,0.97
2017-09-13T10:54:26.408Z,0.70
2017-09-13T10:56:52.627Z,0.80
2017-09-13T10:59:18.875Z,2.37
2017-09-13T11:01:45.042Z,1.23
2017-09-13T11:04:11.228Z,1.00
2017-09-13T11:06:37.460Z,0.60
2017-09-13T11:09:03.681Z,0.97
2017-09-13T11:11:29.923Z,0.80
2017-09-13T11:13:56.145Z,0.80
2017-09-13T11:16:22.381Z,0.83
2017-09-13T11:18:48.614Z,0.80
2017-09-13T11:21:14.837Z,1.27
2017-09-13T11:23:41.070Z,1.63
2017-09-13T11:26:07.305Z,1.63
2017-09-13T11:28:33.543Z,1.40
2017-09-13T11:31:01.232Z,1.00
2017-09-13T11:33:27.524Z,0.80
2017-09-13T11:35:53.751Z,1.43
2017-09-13T11:38:19.974Z,0.90
2017-09-13T11:40:46.206Z,0.83
2017-09-13T11:43:12.374Z,0.80
2017-09-13T11:45:38.554Z,1.43
2017-09-13T11:48:04.805Z,0.83
2017-09-13T11:50:30.968Z,7.60
2017-09-13T11:52:57.167Z,1.10
2017-09-13T11:55:23.396Z,0.83
2017-09-13T11:57:49.611Z,0.93
2017-09-13T12:00:15.860Z,2.60
2017-09-13T12:02:42.072Z,1.50
2017-09-13T12:05:08.302Z,1.13
2017-09-13T12:07:34.539Z,1.00
2017-09-13T12:10:00.778Z,1.10
2017-09-13T12:12:26.992Z,1.93
2017-09-13T12:14:53.254Z,1.00
2017-09-13T12:17:19.467Z,1.00
2017-09-13T12:19:45.696Z,0.90
2017-09-13T12:22:11.951Z,0.70
2017-09-13T12:24:38.146Z,1.17
2017-09-13T12:27:04.388Z,0.90
2017-09-13T12:29:30.654Z,1.07
2017-09-13T12:31:56.868Z,0.90
2017-09-13T12:34:23.051Z,0.90
2017-09-13T12:36:49.301Z,1.00
2017-09-13T12:39:15.534Z,0.87
2017-09-13T12:41:41.751Z,1.23
2017-09-13T12:44:08.003Z,1.77
2017-09-13T12:46:34.214Z,1.30
2017-09-13T12:49:00.496Z,1.37
2017-09-13T12:51:26.686Z,0.90
2017-09-13T12:53:52.891Z,0.80
2017-09-13T12:56:19.163Z,0.70
2017-09-13T12:58:45.373Z,0.80
2017-09-13T13:01:11.611Z,1.03
2017-09-13T13:03:37.831Z,1.10
2017-09-13T13:06:04.063Z,0.80
2017-09-13T13:08:30.250Z,0.80
2017-09-13T13:10:56.519Z,0.90
2017-09-13T13:13:22.746Z,0.90
2017-09-13T13:15:48.984Z,1.70
2017-09-13T13:18:15.215Z,1.20
2017-09-13T13:20:41.412Z,0.90
2017-09-13T13:23:07.637Z,0.93
2017-09-13T13:25:33.896Z,1.20
2017-09-13T13:28:00.123Z,0.87
2017-09-13T13:30:26.374Z,0.90
2017-09-13T13:32:52.608Z,1.10
2017-09-13T13:35:18.800Z,0.60
2017-09-13T13:37:45.025Z,1.93
2017-09-13T13:40:11.255Z,1.30
2017-09-13T13:42:37.491Z,1.30
2017-09-13T13:45:03.733Z,1.00
2017-09-13T13:47:29.957Z,0.90
2017-09-13T13:49:56.202Z,1.00
2017-09-13T13:52:22.423Z,0.90
2017-09-13T13:54:48.656Z,0.90
2017-09-13T13:57:14.878Z,2.93
2017-09-13T13:59:41.105Z,0.80
2017-09-13T14:02:07.355Z,1.90
2017-09-13T14:04:33.581Z,0.90
2017-09-13T14:06:59.789Z,1.10
2017-09-13T14:09:26.019Z,1.20
2017-09-13T14:11:52.265Z,0.90
2017-09-13T14:14:18.477Z,1.00
2017-09-13T14:16:44.703Z,0.90
2017-09-13T14:19:10.952Z,0.83
2017-09-13T14:21:37.171Z,1.87
2017-09-13T14:24:03.419Z,1.17
2017-09-13T14:26:29.633Z,0.70
2017-09-13T14:28:55.880Z,0.80
2017-09-13T14:31:22.130Z,0.70
2017-09-13T14:33:48.370Z,1.00
2017-09-13T14:36:15.071Z,1.03
2017-09-13T14:38:41.294Z,1.07
2017-09-13T14:41:07.517Z,1.07
2017-09-13T14:43:33.762Z,2.53
2017-09-13T14:45:59.988Z,1.20
2017-09-13T14:48:26.211Z,1.30
2017-09-13T14:50:52.446Z,1.17
2017-09-13T14:53:18.712Z,1.43
2017-09-13T14:55:44.891Z,1.37
2017-09-13T14:58:11.123Z,1.67
2017-09-13T15:00:37.361Z,1.03
2017-09-13T15:03:03.582Z,1.90
2017-09-13T15:05:29.829Z,1.23
2017-09-13T15:07:56.063Z,0.90
2017-09-13T15:10:22.273Z,0.87
2017-09-13T15:12:48.504Z,1.00
2017-09-13T15:15:14.751Z,1.30
2017-09-13T15:17:40.976Z,1.30
2017-09-13T15:20:07.211Z,1.43
2017-09-13T15:22:33.425Z,2.83
2017-09-13T15:24:59.723Z,1.00
2017-09-13T15:27:25.996Z,0.97
2017-09-13T15:29:52.221Z,1.17
2017-09-13T15:32:18.446Z,0.90
2017-09-13T15:34:44.686Z,0.93
2017-09-13T15:37:14.400Z,0.97
2017-09-13T15:39:41.725Z,1.23
2017-09-13T15:42:07.980Z,1.10
2017-09-13T15:44:34.201Z,1.53
2017-09-13T15:47:00.413Z,0.90
2017-09-13T15:49:26.650Z,1.37
2017-09-13T15:51:52.890Z,1.10
2017-09-13T15:54:19.114Z,1.00
2017-09-13T15:56:45.343Z,1.43
2017-09-13T15:59:11.579Z,1.73
2017-09-13T16:01:37.823Z,1.07
2017-09-13T16:04:04.030Z,1.30
2017-09-13T16:06:30.181Z,0.90
2017-09-13T16:08:56.400Z,1.63
2017-09-13T16:11:22.661Z,1.60
2017-09-13T16:13:48.849Z,1.00
2017-09-13T16:16:15.110Z,1.60
2017-09-13T16:18:41.374Z,0.80
2017-09-13T16:21:07.649Z,1.40
2017-09-13T16:23:33.872Z,1.10
2017-09-13T16:26:00.098Z,1.03
2017-09-13T16:28:26.334Z,1.10
2017-09-13T16:30:52.566Z,1.87
2017-09-13T16:33:18.763Z,1.10
2017-09-13T16:35:45.017Z,2.00
2017-09-13T16:38:11.259Z,1.83
2017-09-13T16:40:37.510Z,1.30
2017-09-13T16:43:03.737Z,2.63
2017-09-13T16:45:29.893Z,1.00
2017-09-13T16:47:56.109Z,1.40
2017-09-13T16:50:22.264Z,1.50
2017-09-13T16:52:48.428Z,1.30
2017-09-13T16:55:14.587Z,1.70
2017-09-13T16:57:40.779Z,1.60
2017-09-13T17:00:06.943Z,1.50
2017-09-13T17:02:33.113Z,2.40
2017-09-13T17:04:59.317Z,8.80
2017-09-13T17:07:25.470Z,2.20
2017-09-13T17:09:51.639Z,3.47
2017-09-13T17:12:17.789Z,3.00
2017-09-13T17:14:43.995Z,3.00
2017-09-13T17:17:10.242Z,1.90
2017-09-13T17:19:36.444Z,3.23
2017-09-13T17:22:02.696Z,2.60
2017-09-13T17:24:28.994Z,3.43
2017-09-13T17:26:55.261Z,1.83
2017-09-13T17:29:21.466Z,2.60
2017-09-13T17:31:47.692Z,3.13
2017-09-13T17:34:13.924Z,2.40
2017-09-13T17:36:40.169Z,1.80
2017-09-13T17:39:06.416Z,2.17
2017-09-13T17:41:32.607Z,2.17
2017-09-13T17:43:58.858Z,3.73
2017-09-13T17:46:25.083Z,3.07
2017-09-13T17:48:51.329Z,4.93
2017-09-13T17:51:17.558Z,3.33
2017-09-13T17:53:43.771Z,1.77
2017-09-13T17:56:09.982Z,2.43
2017-09-13T17:58:36.149Z,2.17
2017-09-13T18:01:02.340Z,2.07
2017-09-13T18:03:28.592Z,10.43
2017-09-13T18:05:54.795Z,7.72
2017-09-13T18:08:21.055Z,3.23
2017-09-13T18:10:47.283Z,3.53
2017-09-13T18:13:13.514Z,6.22
2017-09-13T18:15:39.735Z,2.42
2017-09-13T18:18:05.954Z,1.75
2017-09-13T18:20:32.191Z,2.45
2017-09-13T18:22:58.427Z,2.20
2017-09-13T18:25:24.641Z,1.70
2017-09-13T18:27:50.881Z,3.25
2017-09-13T18:30:17.080Z,2.28
2017-09-13T18:32:43.328Z,3.47
2017-09-13T18:35:09.549Z,1.98
2017-09-13T18:37:35.795Z,2.62
2017-09-13T18:40:02.030Z,2.15
2017-09-13T18:42:28.243Z,1.92
2017-09-13T18:44:54.502Z,2.30
2017-09-13T18:47:20.741Z,2.10
2017-09-13T18:49:46.948Z,1.90
2017-09-13T18:52:13.180Z,2.45
2017-09-13T18:54:39.395Z,3.05
2017-09-13T18:57:05.633Z,5.68
2017-09-13T18:59:31.846Z,1.87
2017-09-13T19:01:58.098Z,3.00
2017-09-13T19:04:24.281Z,2.33
2017-09-13T19:06:50.540Z,2.30
2017-09-13T19:09:16.804Z,3.37
2017-09-13T19:11:43.022Z,2.75
2017-09-13T19:14:09.195Z,2.03
2017-09-13T19:16:35.483Z,2.15
2017-09-13T19:19:01.709Z,3.60
2017-09-13T19:21:27.923Z,3.20
2017-09-13T19:23:54.149Z,2.85
2017-09-13T19:26:20.391Z,1.80
2017-09-13T19:28:46.771Z,4.30
2017-09-13T19:31:12.972Z,3.78
2017-09-13T19:33:39.176Z,3.78
2017-09-13T19:36:05.395Z,2.90
2017-09-13T19:38:31.663Z,2.28
2017-09-13T19:40:57.845Z,1.95
2017-09-13T19:43:24.112Z,2.50
2017-09-13T19:45:50.325Z,2.50
2017-09-13T19:48:16.577Z,4.03
2017-09-13T19:50:42.814Z,1.80
2017-09-13T19:53:09.009Z,4.32
2017-09-13T19:55:35.244Z,1.87
2017-09-13T19:58:01.486Z,2.55
2017-09-13T20:00:27.707Z,8.45
2017-09-13T20:02:53.936Z,1.77
2017-09-13T20:05:20.166Z,2.33
2017-09-13T20:07:46.392Z,3.75
2017-09-13T20:10:12.611Z,2.97
2017-09-13T20:12:38.844Z,2.30
2017-09-13T20:15:05.077Z,2.85
2017-09-13T20:17:31.311Z,3.28
2017-09-13T20:19:57.546Z,7.10
2017-09-13T20:22:23.800Z,2.60
2017-09-13T20:24:49.986Z,1.87
2017-09-13T20:27:16.244Z,3.90
2017-09-13T20:29:42.556Z,9.27
2017-09-13T20:32:08.780Z,4.12
2017-09-13T20:34:35.021Z,2.45
2017-09-13T20:37:01.258Z,3.65
2017-09-13T20:39:27.472Z,2.90
2017-09-13T20:41:53.726Z,3.12
2017-09-13T20:44:22.943Z,2.17
2017-09-13T20:46:49.148Z,3.45
2017-09-13T20:49:15.385Z,2.45
2017-09-13T20:51:41.656Z,3.03
2017-09-13T20:54:07.933Z,3.08
2017-09-13T20:56:34.218Z,2.40
2017-09-13T20:59:00.501Z,2.45
2017-09-13T21:01:26.709Z,4.35
2017-09-13T21:03:52.959Z,4.65
2017-09-13T21:06:19.181Z,1.80
2017-09-13T21:08:45.338Z,3.20
2017-09-13T21:11:11.534Z,3.08
2017-09-13T21:13:37.757Z,3.83
2017-09-13T21:16:04.014Z,3.15
2017-09-13T21:18:30.219Z,4.40
2017-09-13T21:20:56.463Z,2.28
2017-09-13T21:23:22.676Z,2.05
2017-09-13T21:25:48.904Z,2.20
2017-09-13T21:28:15.138Z,2.37
2017-09-13T21:30:41.377Z,4.30
2017-09-13T21:33:07.614Z,2.67
2017-09-13T21:35:33.831Z,3.97
2017-09-13T21:38:00.088Z,2.85
2017-09-13T21:40:26.386Z,2.67
2017-09-13T21:42:52.628Z,5.97
2017-09-13T21:45:18.848Z,3.97
2017-09-13T21:47:45.084Z,2.92
2017-09-13T21:50:11.320Z,4.12
2017-09-13T21:52:37.529Z,8.02
2017-09-13T21:55:03.768Z,2.90
2017-09-13T21:57:30.009Z,4.90
2017-09-13T21:59:56.240Z,3.37
2017-09-13T22:02:22.473Z,5.28
2017-09-13T22:04:48.693Z,3.62
2017-09-13T22:07:14.928Z,2.60
2017-09-13T22:09:41.142Z,5.70
2017-09-13T22:12:07.389Z,3.78
2017-09-13T22:14:33.604Z,3.58
2017-09-13T22:16:59.846Z,3.87
2017-09-13T22:19:26.079Z,3.50
2017-09-13T22:21:52.304Z,5.40
2017-09-13T22:24:18.540Z,5.72
2017-09-13T22:26:44.829Z,4.78
2017-09-13T22:29:11.100Z,4.32
2017-09-13T22:31:37.314Z,8.70
2017-09-13T22:34:03.553Z,2.87
2017-09-13T22:36:29.786Z,2.35
2017-09-13T22:38:56.039Z,2.75
2017-09-13T22:41:22.240Z,3.83
2017-09-13T22:43:48.468Z,7.18
2017-09-13T22:46:14.699Z,3.17
2017-09-13T22:48:40.930Z,2.17
2017-09-13T22:51:07.157Z,2.97
2017-09-13T22:53:33.405Z,2.28
2017-09-13T22:55:59.625Z,2.37
2017-09-13T22:58:25.854Z,3.75
2017-09-13T23:00:52.083Z,4.87
2017-09-13T23:03:18.295Z,9.15
2017-09-13T23:05:45.538Z,3.97
2017-09-13T23:08:11.802Z,2.42
2017-09-13T23:10:38.029Z,12.65
2017-09-13T23:13:04.247Z,3.50
2017-09-13T23:15:30.515Z,4.37
2017-09-13T23:17:56.707Z,2.80
2017-09-13T23:20:22.939Z,8.30
2017-09-13T23:22:49.162Z,8.18
2017-09-13T23:25:15.403Z,12.95
2017-09-13T23:27:41.633Z,9.48
2017-09-13T23:30:07.850Z,5.90
2017-09-13T23:32:34.084Z,5.15
2017-09-13T23:35:00.320Z,4.07
2017-09-13T23:37:26.552Z,3.08
2017-09-13T23:39:52.778Z,6.60
2017-09-13T23:42:19.006Z,5.95
2017-09-13T23:44:45.227Z,5.20
2017-09-13T23:47:11.474Z,3.67
2017-09-13T23:49:37.695Z,3.85
2017-09-13T23:52:03.911Z,2.80
2017-09-13T23:54:30.155Z,3.03
2017-09-13T23:56:56.386Z,1.90
2017-09-13T23:59:22.613Z,3.25
